createdAt,value
2022-08-07T00:00:18.744Z,24.50
2022-08-07T00:01:44.002Z,24.50
2022-08-07T00:02:48.294Z,24.50
2022-08-07T00:03:52.463Z,24.60
2022-08-07T00:04:58.996Z,24.60
2022-08-07T00:06:04.299Z,24.60
2022-08-07T00:07:09.851Z,24.60
2022-08-07T00:08:14.384Z,24.50
2022-08-07T00:09:21.295Z,24.50
2022-08-07T00:10:31.043Z,24.40
2022-08-07T00:11:53.956Z,24.40
2022-08-07T00:13:17.572Z,24.40
2022-08-07T00:14:31.855Z,24.30
2022-08-07T00:15:38.606Z,24.20
2022-08-07T00:16:52.845Z,24.20
2022-08-07T00:17:58.052Z,24.10
2022-08-07T00:19:03.777Z,24.20
2022-08-07T00:20:15.636Z,24.20
2022-08-07T00:21:57.334Z,24.20
2022-08-07T00:22:59.295Z,24.20
2022-08-07T00:24:04.274Z,24.30
2022-08-07T00:25:17.344Z,24.30
2022-08-07T00:26:48.675Z,24.30
2022-08-07T00:27:53.390Z,24.40
2022-08-07T00:28:59.187Z,24.40
2022-08-07T00:30:05.769Z,24.50
2022-08-07T00:31:37.921Z,24.50
2022-08-07T00:32:50.409Z,24.50
2022-08-07T00:33:55.628Z,24.50
2022-08-07T00:34:59.621Z,24.40
2022-08-07T00:36:06.064Z,24.40
2022-08-07T00:37:11.304Z,24.30
2022-08-07T00:38:14.994Z,24.30
2022-08-07T00:39:20.842Z,24.30
2022-08-07T00:40:36.379Z,24.30
2022-08-07T00:42:02.158Z,24.40
2022-08-07T00:44:01.715Z,24.40
2022-08-07T00:44:38.378Z,24.40
2022-08-07T00:45:46.625Z,24.30
2022-08-07T00:46:51.405Z,24.30
2022-08-07T00:48:09.096Z,24.20
2022-08-07T00:49:24.594Z,24.20
2022-08-07T00:50:50.288Z,24.20
2022-08-07T00:51:58.749Z,24.20
2022-08-07T00:53:03.174Z,24.20
2022-08-07T00:54:09.178Z,24.00
2022-08-07T00:55:17.228Z,24.00
2022-08-07T00:56:33.828Z,24.00
2022-08-07T00:57:37.842Z,24.10
2022-08-07T00:58:50.061Z,24.10
2022-08-07T00:59:56.035Z,24.10
2022-08-07T01:01:00.900Z,24.10
2022-08-07T01:02:20.313Z,24.00
2022-08-07T01:03:56.617Z,24.00
2022-08-07T01:05:01.167Z,24.10
2022-08-07T01:06:07.705Z,24.10
2022-08-07T01:07:13.710Z,24.10
2022-08-07T01:08:17.279Z,24.20
2022-08-07T01:10:04.862Z,24.20
2022-08-07T01:10:56.399Z,24.20
2022-08-07T01:12:27.439Z,24.20
2022-08-07T01:13:26.558Z,24.10
2022-08-07T01:14:40.671Z,24.10
2022-08-07T01:16:04.885Z,24.10
2022-08-07T01:17:11.462Z,24.10
2022-08-07T01:18:17.748Z,24.00
2022-08-07T01:19:27.553Z,24.00
2022-08-07T01:20:44.789Z,24.00
2022-08-07T01:22:03.306Z,24.10
2022-08-07T01:23:13.999Z,24.10
2022-08-07T01:24:21.566Z,24.00
2022-08-07T01:25:54.527Z,23.90
2022-08-07T01:26:56.615Z,23.70
2022-08-07T01:28:02.934Z,23.50
2022-08-07T01:29:07.513Z,23.50
2022-08-07T01:30:12.281Z,23.50
2022-08-07T01:31:42.472Z,23.50
2022-08-07T01:32:51.751Z,23.40
2022-08-07T01:33:57.719Z,23.40
2022-08-07T01:35:06.844Z,23.40
2022-08-07T01:36:15.240Z,23.40
2022-08-07T01:37:23.490Z,23.40
2022-08-07T01:38:31.757Z,23.40
2022-08-07T01:39:46.787Z,23.50
2022-08-07T01:41:01.725Z,23.40
2022-08-07T01:42:37.237Z,23.40
2022-08-07T01:43:38.329Z,23.40
2022-08-07T01:44:44.718Z,23.40
2022-08-07T01:45:54.821Z,23.50
2022-08-07T01:47:00.979Z,23.50
2022-08-07T01:48:18.926Z,23.40
2022-08-07T01:49:26.330Z,23.50
2022-08-07T01:50:33.101Z,23.40
2022-08-07T01:52:02.525Z,23.50
2022-08-07T01:53:08.761Z,23.50
2022-08-07T01:54:36.555Z,23.50
2022-08-07T01:55:51.617Z,23.50
2022-08-07T01:57:08.435Z,23.40
2022-08-07T01:58:28.856Z,23.50
2022-08-07T01:59:45.271Z,23.40
2022-08-07T02:01:09.828Z,23.40
2022-08-07T02:03:05.671Z,23.40
2022-08-07T02:04:10.730Z,23.40
2022-08-07T02:05:47.782Z,23.40
2022-08-07T02:06:50.345Z,23.50
2022-08-07T02:07:56.124Z,23.40
2022-08-07T02:09:51.854Z,23.40
2022-08-07T02:10:48.775Z,23.30
2022-08-07T02:12:18.480Z,23.10
2022-08-07T02:13:56.776Z,23.00
2022-08-07T02:14:57.433Z,22.90
2022-08-07T02:16:13.205Z,22.90
2022-08-07T02:17:27.542Z,22.90
2022-08-07T02:18:46.941Z,22.90
2022-08-07T02:20:04.374Z,22.90
2022-08-07T02:21:16.019Z,22.90
2022-08-07T02:22:25.726Z,22.90
2022-08-07T02:23:35.817Z,23.00
2022-08-07T02:24:45.115Z,23.00
2022-08-07T02:26:31.177Z,22.90
2022-08-07T02:27:24.609Z,23.00
2022-08-07T02:28:31.632Z,23.00
2022-08-07T02:29:48.627Z,23.00
2022-08-07T02:31:10.226Z,23.10
2022-08-07T02:32:27.097Z,23.10
2022-08-07T02:33:57.349Z,23.10
2022-08-07T02:35:01.575Z,23.10
2022-08-07T02:36:28.644Z,23.10
2022-08-07T02:37:43.922Z,23.10
2022-08-07T02:38:50.906Z,23.00
2022-08-07T02:40:29.787Z,22.80
2022-08-07T02:41:33.577Z,22.70
2022-08-07T02:42:43.644Z,22.60
2022-08-07T02:43:49.717Z,22.60
2022-08-07T02:44:58.462Z,22.60
2022-08-07T02:46:05.706Z,22.70
2022-08-07T02:47:19.650Z,22.70
2022-08-07T02:48:31.360Z,22.70
2022-08-07T02:49:58.067Z,22.70
2022-08-07T02:51:28.946Z,22.80
2022-08-07T02:53:00.899Z,22.80
2022-08-07T02:54:13.085Z,22.80
2022-08-07T02:55:28.801Z,22.80
2022-08-07T02:56:50.826Z,22.70
2022-08-07T02:58:00.399Z,22.60
2022-08-07T02:59:10.426Z,22.50
2022-08-07T03:00:16.869Z,22.40
2022-08-07T03:01:36.576Z,22.40
2022-08-07T03:02:55.098Z,22.50
2022-08-07T03:04:03.350Z,22.60
2022-08-07T03:05:13.498Z,22.60
2022-08-07T03:06:33.361Z,22.70
2022-08-07T03:07:43.071Z,22.70
2022-08-07T03:09:11.302Z,22.70
2022-08-07T03:10:18.357Z,22.80
2022-08-07T03:11:32.813Z,22.80
2022-08-07T03:12:48.414Z,22.80
2022-08-07T03:14:01.551Z,22.80
2022-08-07T03:15:09.028Z,22.90
2022-08-07T03:16:13.582Z,22.90
2022-08-07T03:17:17.481Z,22.80
2022-08-07T03:18:25.860Z,22.60
2022-08-07T03:19:39.907Z,22.60
2022-08-07T03:20:47.944Z,22.40
2022-08-07T03:21:53.896Z,22.30
2022-08-07T03:22:59.996Z,22.20
2022-08-07T03:24:25.808Z,22.10
2022-08-07T03:25:40.489Z,22.20
2022-08-07T03:26:58.772Z,22.10
2022-08-07T03:28:38.529Z,22.00
2022-08-07T03:29:46.060Z,22.00
2022-08-07T03:31:17.123Z,21.90
2022-08-07T03:32:26.321Z,21.80
2022-08-07T03:33:40.057Z,21.70
2022-08-07T03:35:01.158Z,21.70
2022-08-07T03:36:11.425Z,21.80
2022-08-07T03:37:16.147Z,21.80
2022-08-07T03:38:29.443Z,21.80
2022-08-07T03:39:46.474Z,21.80
2022-08-07T03:41:05.164Z,21.80
2022-08-07T03:42:08.540Z,21.80
2022-08-07T03:43:14.820Z,21.70
2022-08-07T03:44:34.337Z,21.70
2022-08-07T03:45:43.639Z,21.70
2022-08-07T03:47:14.242Z,21.80
2022-08-07T03:48:23.672Z,21.90
2022-08-07T03:49:31.556Z,21.90
2022-08-07T03:50:36.924Z,22.00
2022-08-07T03:51:47.381Z,21.90
2022-08-07T03:52:54.684Z,21.80
2022-08-07T03:54:33.108Z,21.80
2022-08-07T03:55:23.460Z,21.90
2022-08-07T03:56:33.081Z,21.90
2022-08-07T03:58:34.913Z,22.00
2022-08-07T03:59:14.509Z,22.00
2022-08-07T04:00:29.127Z,22.10
2022-08-07T04:01:38.092Z,22.00
2022-08-07T04:02:48.622Z,21.90
2022-08-07T04:04:04.928Z,21.80
2022-08-07T04:05:10.553Z,21.80
2022-08-07T04:06:36.125Z,21.80
2022-08-07T04:07:45.155Z,21.80
2022-08-07T04:08:53.641Z,21.80
2022-08-07T04:10:02.841Z,21.80
2022-08-07T04:12:21.174Z,21.90
2022-08-07T04:12:35.412Z,21.90
2022-08-07T04:14:09.188Z,21.80
2022-08-07T04:15:07.072Z,21.90
2022-08-07T04:16:15.552Z,21.80
2022-08-07T04:18:30.797Z,21.80
2022-08-07T04:19:04.276Z,21.70
2022-08-07T04:20:27.218Z,21.70
2022-08-07T04:21:33.929Z,21.70
2022-08-07T04:22:53.490Z,21.70
2022-08-07T04:24:11.796Z,21.70
2022-08-07T04:25:42.540Z,21.70
2022-08-07T04:26:49.970Z,21.80
2022-08-07T04:27:59.137Z,21.80
2022-08-07T04:29:07.514Z,21.80
2022-08-07T04:30:21.699Z,21.70
2022-08-07T04:32:03.132Z,21.70
2022-08-07T04:33:15.431Z,21.60
2022-08-07T04:34:24.210Z,21.60
2022-08-07T04:35:38.628Z,21.70
2022-08-07T04:36:48.860Z,21.80
2022-08-07T04:38:04.571Z,21.90
2022-08-07T04:39:11.178Z,22.00
2022-08-07T04:40:16.389Z,22.10
2022-08-07T04:41:23.075Z,22.20
2022-08-07T04:42:32.490Z,22.20
2022-08-07T04:44:10.409Z,22.30
2022-08-07T04:45:14.806Z,22.30
2022-08-07T04:47:04.652Z,22.30
2022-08-07T04:48:22.849Z,22.40
2022-08-07T04:49:25.758Z,22.40
2022-08-07T04:50:39.987Z,22.50
2022-08-07T04:52:08.611Z,22.50
2022-08-07T04:53:40.107Z,22.50
2022-08-07T04:58:09.596Z,22.60
2022-08-07T04:58:23.549Z,22.60
2022-08-07T05:00:39.116Z,22.70
2022-08-07T05:01:45.678Z,22.80
2022-08-07T05:02:57.030Z,22.70
2022-08-07T05:04:12.347Z,22.80
2022-08-07T05:05:53.396Z,22.80
2022-08-07T05:07:20.278Z,22.90
2022-08-07T05:09:04.159Z,22.90
2022-08-07T05:10:34.148Z,23.00
2022-08-07T05:11:57.737Z,22.90
2022-08-07T05:14:52.665Z,22.80
2022-08-07T05:14:56.349Z,22.90
2022-08-07T05:16:04.820Z,22.90
2022-08-07T05:17:12.822Z,23.00
2022-08-07T05:18:29.583Z,23.10
2022-08-07T05:19:47.798Z,23.10
2022-08-07T05:20:56.802Z,23.20
2022-08-07T05:22:04.775Z,23.20
2022-08-07T05:23:29.015Z,23.20
2022-08-07T05:24:40.673Z,23.10
2022-08-07T05:26:10.435Z,23.00
2022-08-07T05:27:18.434Z,22.90
2022-08-07T05:28:40.738Z,22.90
2022-08-07T05:29:52.218Z,23.00
2022-08-07T05:31:01.405Z,23.00
2022-08-07T05:32:08.977Z,23.00
2022-08-07T05:33:13.804Z,23.10
2022-08-07T05:34:20.521Z,23.20
2022-08-07T05:35:33.817Z,23.20
2022-08-07T05:36:52.814Z,23.10
2022-08-07T05:38:11.331Z,23.20
2022-08-07T05:40:05.947Z,23.20
2022-08-07T05:40:51.675Z,23.20
2022-08-07T05:42:02.583Z,23.20
2022-08-07T05:43:11.538Z,23.20
2022-08-07T05:44:17.572Z,23.40
2022-08-07T05:45:47.055Z,23.50
2022-08-07T05:46:54.178Z,23.60
2022-08-07T05:48:03.646Z,23.70
2022-08-07T05:49:17.460Z,23.90
2022-08-07T05:50:23.545Z,24.10
2022-08-07T05:51:31.581Z,24.30
2022-08-07T05:52:38.287Z,24.50
2022-08-07T05:54:12.472Z,24.80
2022-08-07T05:55:10.967Z,25.00
2022-08-07T05:56:28.350Z,25.30
2022-08-07T05:57:37.971Z,25.50
2022-08-07T05:58:49.302Z,25.60
2022-08-07T06:00:02.894Z,25.70
2022-08-07T06:01:19.229Z,26.00
2022-08-07T06:02:28.769Z,26.10
2022-08-07T06:03:53.816Z,26.20
2022-08-07T06:05:08.005Z,26.40
2022-08-07T06:06:17.452Z,26.70
2022-08-07T06:08:13.921Z,26.80
2022-08-07T06:08:48.086Z,26.90
2022-08-07T06:10:05.174Z,27.10
2022-08-07T06:11:10.456Z,27.20
2022-08-07T06:12:15.610Z,27.20
2022-08-07T06:13:31.499Z,27.40
2022-08-07T06:14:49.457Z,27.50
2022-08-07T06:15:56.502Z,27.70
2022-08-07T06:17:07.040Z,27.90
2022-08-07T06:18:17.786Z,28.00
2022-08-07T06:19:47.978Z,28.10
2022-08-07T06:20:50.969Z,28.20
2022-08-07T06:22:23.409Z,28.20
2022-08-07T06:24:37.268Z,28.30
2022-08-07T06:25:01.126Z,28.40
2022-08-07T06:26:06.226Z,28.50
2022-08-07T06:27:11.858Z,28.50
2022-08-07T06:28:28.650Z,28.60
2022-08-07T06:29:39.058Z,28.60
2022-08-07T06:30:46.021Z,28.60
2022-08-07T06:31:55.555Z,28.60
2022-08-07T06:32:58.208Z,28.70
2022-08-07T06:34:00.841Z,28.70
2022-08-07T06:35:10.535Z,28.80
2022-08-07T06:36:35.048Z,28.90
2022-08-07T06:37:44.131Z,29.00
2022-08-07T06:38:59.569Z,29.20
2022-08-07T06:40:20.177Z,29.40
2022-08-07T06:42:02.268Z,29.70
2022-08-07T06:43:21.607Z,30.00
2022-08-07T06:44:43.941Z,30.40
2022-08-07T06:45:48.940Z,30.70
2022-08-07T06:47:10.255Z,30.80
2022-08-07T06:48:24.759Z,31.00
2022-08-07T06:49:30.172Z,31.10
2022-08-07T06:50:36.523Z,31.30
2022-08-07T06:51:49.418Z,31.40
2022-08-07T06:53:04.177Z,31.50
2022-08-07T06:55:32.878Z,31.60
2022-08-07T06:55:53.424Z,31.60
2022-08-07T06:57:04.294Z,31.50
2022-08-07T06:58:14.177Z,31.60
2022-08-07T07:00:12.664Z,31.70
2022-08-07T07:01:01.269Z,31.80
2022-08-07T07:02:49.189Z,31.90
2022-08-07T07:03:48.603Z,31.90
2022-08-07T07:04:55.022Z,32.00
2022-08-07T07:06:02.481Z,32.00
2022-08-07T07:07:19.426Z,31.90
2022-08-07T07:08:34.434Z,31.90
2022-08-07T07:09:39.011Z,31.90
2022-08-07T07:10:47.523Z,31.90
2022-08-07T07:12:19.712Z,32.00
2022-08-07T07:13:55.605Z,32.10
2022-08-07T07:15:23.579Z,32.10
2022-08-07T07:16:33.424Z,32.10
2022-08-07T07:18:13.603Z,32.10
2022-08-07T07:19:55.735Z,32.20
2022-08-07T07:21:13.425Z,32.10
2022-08-07T07:22:35.870Z,32.30
2022-08-07T07:24:08.642Z,32.40
2022-08-07T07:26:31.696Z,32.40
2022-08-07T07:26:38.489Z,32.70
2022-08-07T07:28:02.994Z,32.70
2022-08-07T07:29:56.456Z,32.90
2022-08-07T07:30:40.390Z,33.00
2022-08-07T07:31:48.154Z,33.10
2022-08-07T07:32:54.179Z,33.20
2022-08-07T07:34:04.136Z,33.30
2022-08-07T07:35:10.224Z,33.50
2022-08-07T07:36:17.473Z,33.60
2022-08-07T07:37:49.590Z,33.70
2022-08-07T07:38:49.355Z,33.90
2022-08-07T07:39:56.635Z,34.10
2022-08-07T07:41:05.317Z,34.20
2022-08-07T07:42:17.647Z,34.30
2022-08-07T07:43:27.656Z,34.50
2022-08-07T07:44:53.932Z,34.70
2022-08-07T07:46:37.765Z,34.90
2022-08-07T07:47:24.954Z,35.10
2022-08-07T07:48:35.763Z,35.10
2022-08-07T07:50:34.011Z,35.00
2022-08-07T07:51:07.562Z,35.10
2022-08-07T07:52:13.917Z,35.20
2022-08-07T07:53:25.510Z,35.30
2022-08-07T07:54:31.268Z,35.30
2022-08-07T07:55:37.728Z,35.30
2022-08-07T07:56:49.582Z,35.30
2022-08-07T07:57:58.306Z,35.40
2022-08-07T07:59:06.034Z,35.60
2022-08-07T08:00:10.748Z,35.70
2022-08-07T08:02:02.046Z,35.80
2022-08-07T08:03:01.009Z,35.90
2022-08-07T08:04:11.493Z,35.90
2022-08-07T08:05:17.219Z,35.80
2022-08-07T08:06:21.021Z,35.80
2022-08-07T08:07:35.398Z,35.80
2022-08-07T08:08:42.809Z,35.90
2022-08-07T08:10:04.978Z,36.00
2022-08-07T08:11:18.202Z,35.90
2022-08-07T08:12:59.020Z,36.00
2022-08-07T08:14:00.958Z,36.30
2022-08-07T08:15:06.842Z,36.30
2022-08-07T08:16:50.207Z,36.50
2022-08-07T08:18:17.392Z,36.90
2022-08-07T08:20:16.994Z,37.00
2022-08-07T08:20:52.074Z,36.60
2022-08-07T08:22:17.963Z,36.70
2022-08-07T08:23:43.088Z,36.60
2022-08-07T08:25:24.570Z,36.60
2022-08-07T08:26:50.616Z,36.60
2022-08-07T08:28:03.537Z,36.70
2022-08-07T08:29:10.614Z,37.00
2022-08-07T08:30:19.735Z,36.90
2022-08-07T08:31:58.344Z,37.00
2022-08-07T08:33:10.381Z,37.00
2022-08-07T08:34:27.371Z,37.10
2022-08-07T08:35:43.135Z,37.10
2022-08-07T08:36:57.597Z,37.20
2022-08-07T08:38:04.670Z,37.20
2022-08-07T08:39:11.757Z,37.20
2022-08-07T08:40:34.065Z,37.40
2022-08-07T08:42:17.087Z,37.50
2022-08-07T08:43:56.269Z,37.60
2022-08-07T08:45:26.678Z,37.70
2022-08-07T08:47:00.525Z,37.70
2022-08-07T08:48:12.717Z,37.80
2022-08-07T08:49:33.165Z,38.00
2022-08-07T08:50:51.736Z,38.10
2022-08-07T08:52:13.856Z,38.10
2022-08-07T08:53:45.895Z,38.10
2022-08-07T08:55:08.083Z,38.20
2022-08-07T08:56:24.668Z,38.50
2022-08-07T08:57:57.041Z,38.60
2022-08-07T08:59:24.496Z,38.30
2022-08-07T09:00:42.695Z,38.30
2022-08-07T09:02:35.110Z,38.40
2022-08-07T09:03:52.687Z,38.60
2022-08-07T09:05:36.921Z,38.80
2022-08-07T09:06:54.155Z,38.90
2022-08-07T09:08:33.797Z,39.00
2022-08-07T09:09:43.849Z,39.10
2022-08-07T09:11:00.345Z,39.20
2022-08-07T09:12:30.182Z,39.30
2022-08-07T09:13:43.165Z,39.70
2022-08-07T09:14:59.978Z,39.80
2022-08-07T09:16:50.052Z,39.80
2022-08-07T09:18:11.562Z,39.60
2022-08-07T09:19:58.009Z,39.50
2022-08-07T09:21:57.659Z,39.60
2022-08-07T09:24:32.047Z,39.70
2022-08-07T09:25:11.918Z,39.40
2022-08-07T09:26:29.598Z,39.20
2022-08-07T09:28:02.951Z,39.00
2022-08-07T09:30:03.263Z,38.90
2022-08-07T09:31:48.425Z,38.80
2022-08-07T09:33:16.723Z,39.00
2022-08-07T09:34:54.081Z,38.90
2022-08-07T09:36:26.939Z,38.80
2022-08-07T09:37:48.335Z,38.40
2022-08-07T09:39:53.120Z,38.30
2022-08-07T09:41:00.163Z,38.80
2022-08-07T09:42:12.877Z,38.80
2022-08-07T09:44:06.531Z,38.90
2022-08-07T09:47:52.063Z,39.30
2022-08-07T09:47:55.945Z,38.80
2022-08-07T09:50:00.406Z,38.70
2022-08-07T09:51:25.998Z,38.80
2022-08-07T09:53:13.114Z,39.10
2022-08-07T09:54:21.635Z,39.30
2022-08-07T09:56:14.686Z,38.90
2022-08-07T09:57:36.571Z,38.80
2022-08-07T09:59:14.810Z,38.90
2022-08-07T10:00:24.378Z,38.50
2022-08-07T10:01:53.793Z,38.40
2022-08-07T10:04:07.151Z,38.50
2022-08-07T10:05:29.736Z,38.30
2022-08-07T10:07:03.601Z,38.30
2022-08-07T10:08:58.937Z,38.90
2022-08-07T10:10:21.370Z,39.10
2022-08-07T10:12:02.175Z,38.90
2022-08-07T10:14:00.734Z,39.30
2022-08-07T10:15:18.754Z,39.00
2022-08-07T10:17:16.495Z,39.50
2022-08-07T10:18:31.492Z,39.80
2022-08-07T10:19:59.983Z,39.90
2022-08-07T10:21:02.453Z,39.50
2022-08-07T10:22:24.837Z,38.90
2022-08-07T10:24:04.780Z,39.40
2022-08-07T10:25:42.807Z,39.70
2022-08-07T10:26:51.811Z,39.20
2022-08-07T10:28:32.099Z,39.60
2022-08-07T10:29:54.267Z,39.40
2022-08-07T10:31:05.857Z,39.40
2022-08-07T10:32:53.123Z,39.70
2022-08-07T10:34:37.556Z,39.90
2022-08-07T10:36:11.334Z,39.80
2022-08-07T10:38:09.862Z,40.40
2022-08-07T10:39:42.134Z,40.20
2022-08-07T10:41:12.197Z,40.10
2022-08-07T10:42:53.107Z,39.90
2022-08-07T10:44:28.474Z,39.70
2022-08-07T10:45:58.021Z,39.10
2022-08-07T10:47:14.114Z,38.90
2022-08-07T10:48:23.890Z,39.20
2022-08-07T10:49:51.208Z,39.30
2022-08-07T10:51:57.291Z,39.20
2022-08-07T10:52:58.088Z,39.30
2022-08-07T10:54:39.338Z,39.10
2022-08-07T10:55:41.960Z,39.20
2022-08-07T10:57:07.384Z,39.10
2022-08-07T10:58:46.188Z,39.40
2022-08-07T11:00:36.620Z,39.20
2022-08-07T11:02:04.870Z,39.80
2022-08-07T11:03:42.928Z,39.90
2022-08-07T11:05:10.290Z,40.10
2022-08-07T11:07:01.972Z,39.40
2022-08-07T11:08:17.934Z,39.70
2022-08-07T11:10:07.107Z,39.40
2022-08-07T11:11:15.115Z,39.70
2022-08-07T11:12:32.505Z,39.70
2022-08-07T11:14:44.340Z,39.60
2022-08-07T11:15:31.654Z,39.60
2022-08-07T11:16:49.208Z,39.70
2022-08-07T11:18:18.442Z,39.60
2022-08-07T11:19:31.958Z,39.80
2022-08-07T11:20:56.104Z,39.80
2022-08-07T11:22:26.339Z,39.60
2022-08-07T11:24:08.474Z,39.40
2022-08-07T11:25:50.180Z,39.60
2022-08-07T11:28:02.979Z,39.90
2022-08-07T11:29:02.558Z,39.60
2022-08-07T11:30:38.998Z,40.10
2022-08-07T11:31:53.960Z,40.40
2022-08-07T11:33:58.536Z,40.60
2022-08-07T11:35:01.495Z,40.80
2022-08-07T11:36:13.712Z,40.60
2022-08-07T11:37:57.756Z,40.80
2022-08-07T11:40:00.244Z,40.30
2022-08-07T11:41:18.209Z,40.40
2022-08-07T11:43:09.965Z,40.90
2022-08-07T11:44:52.456Z,41.30
2022-08-07T11:46:22.268Z,41.60
2022-08-07T11:48:29.182Z,41.30
2022-08-07T11:50:30.677Z,41.10
2022-08-07T11:51:44.896Z,41.00
2022-08-07T11:53:22.748Z,40.80
2022-08-07T11:54:55.048Z,40.60
2022-08-07T11:56:54.103Z,40.60
2022-08-07T11:58:16.266Z,40.50
2022-08-07T12:00:11.795Z,40.80
2022-08-07T12:01:20.197Z,40.50
2022-08-07T12:02:52.288Z,40.30
2022-08-07T12:04:02.126Z,40.30
2022-08-07T12:05:28.513Z,40.20
2022-08-07T12:07:00.722Z,40.40
2022-08-07T12:08:25.936Z,40.60
2022-08-07T12:09:55.991Z,41.10
2022-08-07T12:11:20.612Z,40.60
2022-08-07T12:12:35.621Z,40.40
2022-08-07T12:13:52.797Z,40.90
2022-08-07T12:15:46.120Z,41.00
2022-08-07T12:17:06.034Z,41.50
2022-08-07T12:18:29.732Z,40.60
2022-08-07T12:19:56.803Z,40.50
2022-08-07T12:22:37.310Z,40.50
2022-08-07T12:24:05.860Z,40.80
2022-08-07T12:26:03.448Z,41.10
2022-08-07T12:26:58.998Z,42.10
2022-08-07T12:28:09.820Z,42.00
2022-08-07T12:29:37.168Z,41.70
2022-08-07T12:30:46.761Z,42.00
2022-08-07T12:32:03.629Z,41.50
2022-08-07T12:33:28.354Z,41.00
2022-08-07T12:34:37.232Z,40.80
2022-08-07T12:35:41.435Z,40.40
2022-08-07T12:36:56.957Z,40.00
2022-08-07T12:38:11.701Z,40.00
2022-08-07T12:39:43.027Z,39.80
2022-08-07T12:40:50.216Z,39.80
2022-08-07T12:41:57.124Z,39.60
2022-08-07T12:43:09.750Z,39.30
2022-08-07T12:44:17.185Z,39.40
2022-08-07T12:45:23.715Z,39.20
2022-08-07T12:46:50.887Z,38.40
2022-08-07T12:48:51.875Z,37.60
2022-08-07T12:50:05.127Z,37.30
2022-08-07T12:51:33.461Z,37.30
2022-08-07T12:52:59.473Z,37.00
2022-08-07T12:54:38.141Z,37.30
2022-08-07T12:56:03.459Z,37.40
2022-08-07T12:57:09.833Z,36.80
2022-08-07T12:58:18.281Z,36.90
2022-08-07T12:59:53.895Z,36.70
2022-08-07T13:01:32.028Z,36.70
2022-08-07T13:02:53.423Z,36.40
2022-08-07T13:04:05.232Z,36.60
2022-08-07T13:06:03.796Z,36.40
2022-08-07T13:08:13.683Z,36.60
2022-08-07T13:10:21.619Z,36.50
2022-08-07T13:11:30.924Z,36.80
2022-08-07T13:13:02.898Z,37.10
2022-08-07T13:14:30.209Z,37.30
2022-08-07T13:15:58.771Z,37.10
2022-08-07T13:17:12.682Z,37.20
2022-08-07T13:18:49.129Z,37.60
2022-08-07T13:20:03.078Z,37.80
2022-08-07T13:21:09.856Z,37.80
2022-08-07T13:22:27.885Z,37.70
2022-08-07T13:24:04.135Z,37.60
2022-08-07T13:25:28.791Z,37.40
2022-08-07T13:26:47.488Z,37.30
2022-08-07T13:28:18.277Z,37.40
2022-08-07T13:29:36.565Z,37.50
2022-08-07T13:31:01.802Z,37.60
2022-08-07T13:32:32.245Z,37.50
2022-08-07T13:34:34.475Z,37.60
2022-08-07T13:35:21.114Z,37.40
2022-08-07T13:36:30.525Z,37.30
2022-08-07T13:37:59.031Z,37.20
2022-08-07T13:39:49.421Z,37.00
2022-08-07T13:41:09.755Z,37.00
2022-08-07T13:42:21.493Z,37.00
2022-08-07T13:43:29.421Z,37.20
2022-08-07T13:44:41.233Z,37.30
2022-08-07T13:46:11.929Z,37.30
2022-08-07T13:47:15.774Z,37.30
2022-08-07T13:48:33.966Z,37.20
2022-08-07T13:50:34.786Z,37.40
2022-08-07T13:51:27.181Z,37.50
2022-08-07T13:52:40.909Z,37.10
2022-08-07T13:53:59.786Z,37.00
2022-08-07T13:55:11.052Z,37.20
2022-08-07T13:56:36.037Z,36.80
2022-08-07T13:57:57.932Z,36.60
2022-08-07T13:59:12.029Z,36.80
2022-08-07T14:00:26.956Z,36.70
2022-08-07T14:01:51.541Z,36.60
2022-08-07T14:02:59.565Z,36.40
2022-08-07T14:04:14.634Z,36.50
2022-08-07T14:05:23.235Z,36.60
2022-08-07T14:06:32.388Z,36.40
2022-08-07T14:08:00.055Z,36.40
2022-08-07T14:09:05.092Z,36.30
2022-08-07T14:10:20.450Z,36.20
2022-08-07T14:11:53.311Z,36.10
2022-08-07T14:13:03.786Z,36.30
2022-08-07T14:14:11.047Z,36.30
2022-08-07T14:15:39.558Z,36.40
2022-08-07T14:16:50.066Z,36.30
2022-08-07T14:18:15.512Z,36.10
2022-08-07T14:20:41.785Z,35.90
2022-08-07T14:20:54.716Z,35.60
2022-08-07T14:22:03.941Z,35.70
2022-08-07T14:23:59.166Z,35.70
2022-08-07T14:24:54.657Z,35.70
2022-08-07T14:26:01.791Z,36.00
2022-08-07T14:28:09.836Z,35.80
2022-08-07T14:28:57.387Z,36.10
2022-08-07T14:30:06.339Z,36.20
2022-08-07T14:31:14.429Z,36.10
2022-08-07T14:32:19.457Z,35.90
2022-08-07T14:33:23.594Z,35.90
2022-08-07T14:34:30.102Z,35.90
2022-08-07T14:35:44.658Z,35.80
2022-08-07T14:36:56.290Z,35.70
2022-08-07T14:38:03.239Z,35.60
2022-08-07T14:39:12.526Z,35.20
2022-08-07T14:40:35.380Z,35.60
2022-08-07T14:42:22.320Z,35.60
2022-08-07T14:43:58.470Z,35.70
2022-08-07T14:44:33.894Z,35.80
2022-08-07T14:45:57.312Z,36.00
2022-08-07T14:47:08.941Z,36.10
2022-08-07T14:48:20.447Z,36.00
2022-08-07T14:50:58.447Z,36.00
2022-08-07T14:52:10.629Z,35.90
2022-08-07T14:53:14.693Z,35.90
2022-08-07T14:54:33.073Z,36.00
2022-08-07T14:55:56.448Z,35.90
2022-08-07T14:57:04.145Z,35.50
2022-08-07T14:58:07.164Z,35.40
2022-08-07T15:00:06.156Z,35.50
2022-08-07T15:00:52.611Z,35.50
2022-08-07T15:01:58.795Z,35.60
2022-08-07T15:03:19.146Z,35.60
2022-08-07T15:04:25.254Z,35.60
2022-08-07T15:05:30.396Z,35.50
2022-08-07T15:06:38.165Z,35.40
2022-08-07T15:07:47.327Z,35.50
2022-08-07T15:08:55.788Z,35.40
2022-08-07T15:10:02.030Z,35.60
2022-08-07T15:11:10.690Z,35.60
2022-08-07T15:13:59.362Z,35.50
2022-08-07T15:15:22.495Z,35.30
2022-08-07T15:16:34.881Z,35.40
2022-08-07T15:19:14.187Z,35.30
2022-08-07T15:20:33.405Z,35.50
2022-08-07T15:22:03.942Z,35.30
2022-08-07T15:25:13.407Z,34.90
2022-08-07T15:25:14.181Z,35.20
2022-08-07T15:26:28.872Z,34.80
2022-08-07T15:27:34.416Z,34.60
2022-08-07T15:28:50.036Z,34.70
2022-08-07T15:30:16.475Z,34.60
2022-08-07T15:32:01.274Z,34.50
2022-08-07T15:32:51.057Z,34.30
2022-08-07T15:34:12.424Z,34.20
2022-08-07T15:36:00.493Z,34.10
2022-08-07T15:37:02.668Z,33.90
2022-08-07T15:38:29.956Z,33.90
2022-08-07T15:39:57.944Z,33.90
2022-08-07T15:42:42.041Z,34.00
2022-08-07T15:42:46.367Z,34.00
2022-08-07T15:44:09.251Z,34.00
2022-08-07T15:45:55.068Z,34.10
2022-08-07T15:47:08.756Z,33.70
2022-08-07T15:48:30.231Z,33.80
2022-08-07T15:50:05.398Z,33.80
2022-08-07T15:52:31.347Z,33.80
2022-08-07T15:53:52.935Z,33.70
2022-08-07T15:54:57.146Z,33.60
2022-08-07T15:56:13.034Z,33.70
2022-08-07T15:57:27.828Z,33.60
2022-08-07T15:58:52.332Z,33.60
2022-08-07T15:59:56.863Z,33.60
2022-08-07T16:01:05.517Z,33.60
2022-08-07T16:02:09.186Z,33.50
2022-08-07T16:03:46.121Z,33.50
2022-08-07T16:04:46.109Z,33.50
2022-08-07T16:05:51.849Z,33.40
2022-08-07T16:06:57.356Z,33.30
2022-08-07T16:08:33.589Z,33.30
2022-08-07T16:09:54.633Z,33.40
2022-08-07T16:11:17.364Z,33.50
2022-08-07T16:12:41.723Z,33.50
2022-08-07T16:14:26.626Z,33.30
2022-08-07T16:16:43.374Z,33.30
2022-08-07T16:18:01.297Z,33.00
2022-08-07T16:19:43.176Z,33.00
2022-08-07T16:22:01.183Z,32.90
2022-08-07T16:23:11.875Z,33.00
2022-08-07T16:24:37.512Z,32.90
2022-08-07T16:26:10.521Z,32.90
2022-08-07T16:27:39.952Z,32.80
2022-08-07T16:30:09.210Z,32.60
2022-08-07T16:30:55.088Z,32.60
2022-08-07T16:32:00.643Z,32.60
2022-08-07T16:34:02.320Z,32.50
2022-08-07T16:34:55.391Z,32.50
2022-08-07T16:36:20.736Z,32.40
2022-08-07T16:38:06.925Z,32.50
2022-08-07T16:39:21.018Z,32.50
2022-08-07T16:41:08.966Z,32.60
2022-08-07T16:42:26.575Z,32.40
2022-08-07T16:44:05.658Z,32.40
2022-08-07T16:46:40.621Z,32.40
2022-08-07T16:48:53.707Z,32.20
2022-08-07T16:50:39.416Z,31.50
2022-08-07T16:52:50.531Z,31.10
2022-08-07T16:54:06.385Z,30.60
2022-08-07T16:55:17.444Z,30.30
2022-08-07T16:56:54.994Z,30.20
2022-08-07T16:58:15.897Z,30.20
2022-08-07T16:59:51.348Z,30.30
2022-08-07T17:00:56.675Z,30.30
2022-08-07T17:02:28.387Z,30.30
2022-08-07T17:03:59.940Z,30.20
2022-08-07T17:06:01.998Z,30.10
2022-08-07T17:07:14.110Z,30.10
2022-08-07T17:09:04.213Z,30.10
2022-08-07T17:10:09.262Z,30.10
2022-08-07T17:12:01.437Z,30.00
2022-08-07T17:13:01.738Z,29.90
2022-08-07T17:14:19.627Z,29.90
2022-08-07T17:15:55.867Z,29.80
2022-08-07T17:17:02.408Z,29.90
2022-08-07T17:18:38.022Z,29.80
2022-08-07T17:20:01.533Z,29.80
2022-08-07T17:21:18.473Z,29.90